Time;durP1;ratioP1;P1;durP2;ratioP2;P2;SDS_P1;SDS_P2;PMS_P1;PMS_P2;Temp;Humidity;BMP_temperature;BMP_pressure;BME280_temperature;BME280_humidity;BME280_pressure;Samples;Min_cycle;Max_cycle;Signal;HPM_P1;HPM_P2
2022/11/11 00:01:13;;;;;;;5.13;3.17;;;;;;;5.79;75.45;94243.75;2054660;70;20142;-74
2022/11/11 00:03:57;;;;;;;6.05;2.95;;;;;;;5.75;74.80;94245.38;2054538;69;20156;-74
2022/11/11 00:06:41;;;;;;;6.38;2.60;;;;;;;5.66;75.50;94245.84;2054207;70;20153;-79
2022/11/11 00:09:26;;;;;;;4.50;2.53;;;;;;;5.72;75.59;94243.66;2054303;69;20230;-75
2022/11/11 00:12:11;;;;;;;4.78;2.60;;;;;;;5.71;74.96;94236.56;2054546;69;20193;-74
2022/11/11 00:14:55;;;;;;;7.80;3.00;;;;;;;5.44;76.71;94231.06;2054603;69;20216;-74
2022/11/11 00:26:49;;;;;;;4.80;2.40;;;;;;;5.43;76.00;94237.19;2054233;69;20470;-74
2022/11/11 00:29:33;;;;;;;5.40;2.50;;;;;;;5.41;75.44;94237.00;2050857;70;20236;-74
2022/11/11 00:32:23;;;;;;;4.35;2.35;;;;;;;5.38;74.65;94247.19;2050355;70;20213;-73
2022/11/11 00:38:58;;;;;;;5.13;2.78;;;;;;;5.27;75.96;94250.22;2051032;70;20746;-74
2022/11/11 00:41:20;;;;;;;5.47;2.92;;;;;;;5.19;75.98;94252.16;2048497;70;20173;-73
2022/11/11 00:44:04;;;;;;;7.40;2.90;;;;;;;5.15;76.47;94258.06;2051079;70;20162;-73
2022/11/11 00:52:54;;;;;;;4.30;2.70;;;;;;;5.16;77.36;94256.75;2051195;70;20234;-73
2022/11/11 00:55:39;;;;;;;4.40;2.40;;;;;;;5.18;76.17;94259.78;2051140;70;20679;-73
2022/11/11 00:58:24;;;;;;;3.40;1.80;;;;;;;5.38;75.92;94261.16;2047957;70;20154;-74
2022/11/11 01:01:09;;;;;;;4.45;1.70;;;;;;;5.39;76.15;94253.53;2051067;70;20165;-74
2022/11/11 01:03:53;;;;;;;3.17;1.80;;;;;;;5.33;75.88;94256.44;2051095;70;20258;-74
2022/11/11 01:06:38;;;;;;;2.10;1.65;;;;;;;5.50;75.46;94256.09;2048191;70;20173;-73
2022/11/11 01:09:22;;;;;;;2.00;1.60;;;;;;;5.37;75.72;94245.69;2050577;70;20660;-73
2022/11/11 01:12:06;;;;;;;3.55;1.50;;;;;;;5.42;75.57;94253.19;2050666;70;20254;-76
2022/11/11 01:14:52;;;;;;;3.05;1.50;;;;;;;5.44;75.28;94266.63;2050684;70;20546;-77
2022/11/11 01:17:36;;;;;;;5.82;1.40;;;;;;;5.38;75.91;94263.19;2050318;70;20732;-77
2022/11/11 01:20:23;;;;;;;2.10;1.20;;;;;;;5.29;75.98;94259.56;2050768;70;20184;-75
2022/11/11 01:23:10;;;;;;;2.95;1.50;;;;;;;5.35;76.29;94260.19;2050989;70;20667;-75
2022/11/11 01:25:54;;;;;;;3.47;1.13;;;;;;;5.35;76.32;94253.84;2050836;70;20153;-75
2022/11/11 01:28:38;;;;;;;9.45;3.08;;;;;;;5.49;76.52;94240.59;2050388;70;20638;-75
2022/11/11 01:31:24;;;;;;;2.33;1.42;;;;;;;5.44;74.97;94236.63;2050777;70;20154;-76
2022/11/11 01:34:09;;;;;;;2.83;1.67;;;;;;;5.21;75.72;94239.16;2051001;70;20648;-73
2022/11/11 01:36:53;;;;;;;2.45;1.60;;;;;;;5.12;76.25;94234.00;2050821;70;20165;-73
2022/11/11 01:39:37;;;;;;;2.88;1.50;;;;;;;5.37;75.85;94225.41;2050603;70;20237;-73
2022/11/11 01:42:21;;;;;;;2.60;1.27;;;;;;;5.43;75.55;94229.56;2050598;70;20169;-73
2022/11/11 01:45:43;;;;;;;2.60;1.30;;;;;;;5.40;75.19;94224.28;2050966;70;20240;-73
2022/11/11 01:51:42;;;;;;;3.90;1.52;;;;;;;4.99;75.64;94222.84;2050648;70;20294;-75
2022/11/11 01:54:55;;;;;;;3.30;1.60;;;;;;;5.08;74.89;94230.78;2050725;70;20206;-74
2022/11/11 01:57:50;;;;;;;2.95;1.45;;;;;;;5.01;75.29;94225.88;2050278;70;20289;-74
2022/11/11 02:00:34;;;;;;;4.03;1.50;;;;;;;4.89;75.92;94211.38;2050712;70;20181;-75
2022/11/11 02:03:22;;;;;;;2.97;1.58;;;;;;;4.62;77.48;94210.63;2051041;70;20205;-74
2022/11/11 02:06:07;;;;;;;1.95;1.50;;;;;;;4.77;76.24;94222.00;2051023;70;20503;-73
2022/11/11 02:08:52;;;;;;;1.77;1.30;;;;;;;4.86;76.79;94218.03;2050880;70;20256;-74
2022/11/11 02:14:45;;;;;;;2.47;1.52;;;;;;;4.75;75.75;94221.78;2050704;70;20212;-74
2022/11/11 02:17:31;;;;;;;3.08;1.58;;;;;;;4.74;75.97;94220.28;2050849;70;20255;-74
2022/11/11 02:20:28;;;;;;;2.55;1.50;;;;;;;4.81;75.19;94221.66;2050840;70;20206;-76
2022/11/11 02:23:54;;;;;;;3.50;1.40;;;;;;;4.80;75.62;94232.09;2050606;70;20169;-75
2022/11/11 02:26:39;;;;;;;3.75;1.50;;;;;;;4.77;76.05;94240.78;2036683;70;20533;-75
2022/11/11 02:29:24;;;;;;;6.07;1.90;;;;;;;4.72;76.50;94239.63;2036585;70;20151;-74
2022/11/11 02:32:08;;;;;;;3.25;1.40;;;;;;;4.70;75.71;94247.00;2036581;70;20556;-73
2022/11/11 02:34:53;;;;;;;2.72;1.73;;;;;;;4.83;75.94;94244.22;2036549;70;20170;-73
2022/11/11 02:37:37;;;;;;;2.33;1.65;;;;;;;4.77;75.75;94244.34;2036562;70;20204;-75
2022/11/11 02:41:55;;;;;;;3.35;1.50;;;;;;;4.83;75.73;94238.63;2036598;70;20220;-73
2022/11/11 02:43:43;;;;;;;1.58;1.30;;;;;;;4.79;75.10;94238.97;2037102;70;20248;-75
2022/11/11 02:46:27;;;;;;;2.28;1.55;;;;;;;4.81;75.11;94233.59;2037113;70;20676;-75
2022/11/11 02:49:11;;;;;;;2.20;1.42;;;;;;;4.68;74.48;94230.81;2037314;70;20572;-77
2022/11/11 02:51:56;;;;;;;2.85;1.55;;;;;;;4.55;75.34;94239.91;2036749;70;20239;-76
2022/11/11 02:54:42;;;;;;;3.38;1.67;;;;;;;4.55;75.56;94241.94;2036451;70;20246;-77
2022/11/11 02:57:27;;;;;;;2.25;1.30;;;;;;;4.55;76.03;94253.84;2045385;70;20682;-76
2022/11/11 03:00:11;;;;;;;2.55;1.50;;;;;;;4.57;75.36;94261.69;2050513;70;20333;-78
2022/11/11 03:02:56;;;;;;;2.05;1.40;;;;;;;4.54;74.62;94263.50;2054415;70;20522;-76
2022/11/11 03:05:40;;;;;;;3.20;1.50;;;;;;;4.47;74.07;94255.78;2054618;70;20718;-75
2022/11/11 03:08:24;;;;;;;2.47;1.67;;;;;;;4.37;75.78;94262.31;2054544;70;20650;-75
2022/11/11 03:11:09;;;;;;;2.75;1.52;;;;;;;4.45;74.87;94266.72;2054359;69;20196;-75
2022/11/11 03:13:54;;;;;;;4.10;1.55;;;;;;;4.49;75.08;94272.75;2054281;69;20172;-75
2022/11/11 03:19:42;;;;;;;3.78;1.52;;;;;;;4.33;75.29;94276.53;2054439;69;20161;-75
2022/11/11 03:22:26;;;;;;;4.55;1.70;;;;;;;4.31;75.31;94281.91;2054418;69;20541;-79
2022/11/11 03:28:19;;;;;;;2.65;1.20;;;;;;;4.39;75.28;94279.22;2051703;70;20514;-73
2022/11/11 03:31:03;;;;;;;3.20;1.30;;;;;;;4.40;75.67;94275.16;2054348;69;20586;-74
2022/11/11 03:33:48;;;;;;;4.65;1.88;;;;;;;4.08;78.15;94273.91;2054637;69;20145;-75
2022/11/11 03:38:14;;;;;;;2.10;1.00;;;;;;;4.41;77.05;94277.44;2054546;69;20281;-71
2022/11/11 03:39:36;;;;;;;3.25;1.17;;;;;;;4.41;76.59;94288.59;2054525;69;20161;-71
2022/11/11 03:42:20;;;;;;;1.02;0.95;;;;;;;4.49;76.21;94281.09;2054474;69;20256;-71
2022/11/11 03:45:05;;;;;;;1.13;1.00;;;;;;;4.51;76.76;94284.09;2051865;70;20177;-72
2022/11/11 03:47:49;;;;;;;1.55;1.15;;;;;;;4.67;76.48;94287.88;2054060;69;20530;-72
2022/11/11 03:50:33;;;;;;;1.90;1.00;;;;;;;4.72;76.16;94287.03;2053939;70;20315;-72
2022/11/11 03:53:19;;;;;;;1.70;0.93;;;;;;;4.65;76.73;94286.91;2054084;69;20212;-72
2022/11/11 03:56:03;;;;;;;2.97;0.80;;;;;;;4.72;76.68;94287.03;2054241;70;20498;-73
2022/11/11 03:58:47;;;;;;;3.75;0.90;;;;;;;4.71;75.50;94281.97;2054252;69;20230;-74
2022/11/11 04:10:40;;;;;;;2.40;0.90;;;;;;;4.87;75.08;94289.31;2051864;70;20165;-73
2022/11/11 04:16:29;;;;;;;2.47;0.90;;;;;;;4.82;75.62;94296.50;2054310;69;20224;-72
2022/11/11 04:22:17;;;;;;;;;;;;;;;4.57;75.60;94300.72;2054762;69;20213;-72
2022/11/11 04:31:07;;;;;;;2.05;1.25;;;;;;;4.47;75.88;94300.38;2054317;69;20213;-72
2022/11/11 04:33:52;;;;;;;2.50;1.75;;;;;;;4.53;75.26;94303.81;2054294;70;20172;-74
2022/11/11 04:36:36;;;;;;;8.93;3.90;;;;;;;4.53;74.91;94309.41;2054431;69;20257;-73
2022/11/11 04:42:23;;;;;;;11.70;6.13;;;;;;;4.49;74.98;94320.16;2054151;69;20298;-74
2022/11/11 04:48:15;;;;;;;13.60;6.07;;;;;;;4.45;74.59;94311.34;2054560;69;20156;-77
2022/11/11 04:51:00;;;;;;;14.23;7.00;;;;;;;4.36;74.97;94303.38;2054619;70;20692;-77
2022/11/11 04:53:43;;;;;;;14.35;6.30;;;;;;;4.16;75.38;94306.72;2054459;69;20216;-76
2022/11/11 04:59:30;;;;;;;17.83;9.95;;;;;;;4.27;75.24;94309.34;2054426;69;20260;-77
2022/11/11 05:05:18;;;;;;;18.27;10.40;;;;;;;4.18;74.70;94318.84;2054503;70;20193;-74
2022/11/11 05:11:06;;;;;;;12.48;4.00;;;;;;;4.18;75.05;94324.44;2054534;69;20149;-73
2022/11/11 05:23:03;;;;;;;12.20;5.07;;;;;;;4.06;74.57;94339.81;2054699;69;20338;-77
2022/11/11 05:25:47;;;;;;;9.65;5.53;;;;;;;4.09;74.94;94335.97;2054534;69;20152;-78
2022/11/11 05:28:31;;;;;;;8.23;5.13;;;;;;;4.06;74.59;94334.22;2054314;70;20594;-75
2022/11/11 05:31:15;;;;;;;7.97;4.90;;;;;;;4.00;74.84;94330.78;2051615;70;20161;-79
2022/11/11 05:33:59;;;;;;;8.70;5.22;;;;;;;4.07;73.75;94338.53;2054406;70;20581;-79
2022/11/11 05:36:43;;;;;;;10.70;6.35;;;;;;;4.06;74.72;94334.22;2054393;69;20239;-77
2022/11/11 05:39:26;;;;;;;9.85;6.13;;;;;;;3.98;73.98;94336.13;2054385;69;20241;-74
2022/11/11 05:42:12;;;;;;;10.95;7.57;;;;;;;3.90;73.99;94338.03;2054450;70;20177;-74
2022/11/11 05:44:58;;;;;;;14.65;8.38;;;;;;;3.93;75.77;94331.38;2054597;70;20149;-72
2022/11/11 05:47:42;;;;;;;17.58;9.35;;;;;;;3.93;74.83;94334.16;2054396;70;20161;-73
2022/11/11 05:50:26;;;;;;;22.75;14.90;;;;;;;3.85;74.27;94330.47;2054688;70;20153;-73
2022/11/11 05:53:10;;;;;;;17.23;10.10;;;;;;;3.68;76.29;94339.81;2054504;70;20260;-73
2022/11/11 05:55:55;;;;;;;24.45;14.05;;;;;;;3.79;76.00;94345.25;2054435;70;20244;-74
2022/11/11 05:58:39;;;;;;;27.15;16.08;;;;;;;3.79;74.95;94350.81;2054410;69;20252;-73
2022/11/11 06:01:24;;;;;;;20.92;13.50;;;;;;;3.78;75.28;94362.50;2051639;70;20157;-74
2022/11/11 06:04:08;;;;;;;19.73;13.18;;;;;;;3.76;74.95;94353.91;2054431;70;20213;-73
2022/11/11 06:06:52;;;;;;;19.80;10.75;;;;;;;3.69;75.12;94366.41;2054489;70;20550;-75
2022/11/11 06:09:36;;;;;;;13.85;8.68;;;;;;;3.76;75.43;94370.63;2054546;70;20483;-77
2022/11/11 06:12:20;;;;;;;19.40;11.13;;;;;;;3.64;74.91;94361.66;2054306;70;20614;-76
2022/11/11 06:15:05;;;;;;;18.92;9.93;;;;;;;3.51;75.17;94358.78;2054409;69;20177;-78
2022/11/11 06:17:49;;;;;;;27.45;18.63;;;;;;;3.56;75.97;94363.53;2054335;69;20545;-81
2022/11/11 06:20:37;;;;;;;24.05;16.20;;;;;;;3.56;74.91;94360.72;2054297;69;20607;-79
2022/11/11 06:23:22;;;;;;;29.75;20.23;;;;;;;3.69;75.93;94360.81;2054474;70;20156;-75
2022/11/11 06:26:11;;;;;;;26.80;18.35;;;;;;;3.63;75.54;94370.53;2054441;70;20227;-79
2022/11/11 06:28:56;;;;;;;25.70;18.40;;;;;;;3.67;76.10;94373.78;2051568;70;20525;-80
2022/11/11 06:31:41;;;;;;;28.17;17.65;;;;;;;3.77;75.76;94374.91;2051677;70;20550;-80
2022/11/11 06:34:28;;;;;;;28.13;17.20;;;;;;;3.72;76.31;94372.97;2054444;70;20196;-79
2022/11/11 06:37:12;;;;;;;28.95;20.17;;;;;;;3.69;76.47;94379.56;2054313;70;20594;-79
2022/11/11 06:39:56;;;;;;;12.25;8.80;;;;;;;3.83;77.01;94387.50;2054302;70;20200;-80
2022/11/11 06:42:40;;;;;;;27.25;18.10;;;;;;;3.89;75.94;94392.97;2054232;70;20236;-79
2022/11/11 06:45:26;;;;;;;23.02;14.98;;;;;;;3.90;76.58;94388.19;2054329;70;20157;-74
2022/11/11 06:48:11;;;;;;;29.63;15.20;;;;;;;3.75;76.58;94392.16;2054432;70;20264;-73
2022/11/11 06:51:02;;;;;;;20.70;13.10;;;;;;;3.83;76.35;94390.28;2052007;70;20308;-73
2022/11/11 06:53:46;;;;;;;18.45;12.25;;;;;;;3.90;75.48;94386.16;2057980;70;20231;-75
2022/11/11 06:56:30;;;;;;;24.95;15.70;;;;;;;3.93;75.29;94399.00;2054477;70;20177;-75
2022/11/11 06:59:14;;;;;;;26.00;16.25;;;;;;;3.97;75.42;94407.06;2054166;70;20586;-78
2022/11/11 07:01:58;;;;;;;26.40;16.80;;;;;;;4.03;75.41;94400.16;2054401;70;20253;-76
2022/11/11 07:04:42;;;;;;;23.90;15.93;;;;;;;3.98;76.54;94403.00;2054360;69;20153;-80
2022/11/11 07:07:27;;;;;;;30.80;21.20;;;;;;;4.05;75.89;94405.97;2054355;70;20145;-79
2022/11/11 07:10:14;;;;;;;30.92;18.50;;;;;;;4.00;75.99;94403.25;2054334;70;20259;-77
2022/11/11 07:12:58;;;;;;;27.80;16.35;;;;;;;4.02;76.07;94393.06;2054231;70;20602;-78
2022/11/11 07:15:43;;;;;;;12.43;6.82;;;;;;;4.28;75.27;94400.81;2054357;69;20606;-76
2022/11/11 07:18:28;;;;;;;22.63;10.55;;;;;;;4.02;76.35;94401.41;2054366;70;20279;-77
2022/11/11 07:21:12;;;;;;;59.17;26.67;;;;;;;4.02;76.45;94409.03;2054378;69;20252;-73
2022/11/11 07:23:56;;;;;;;52.00;22.83;;;;;;;4.21;75.60;94407.00;2054114;70;20514;-74
2022/11/11 07:26:41;;;;;;;45.92;21.33;;;;;;;4.25;75.33;94409.47;2054387;70;20651;-73
2022/11/11 07:29:25;;;;;;;37.88;16.30;;;;;;;4.34;75.22;94415.44;2054596;70;20617;-74
2022/11/11 07:32:09;;;;;;;29.45;14.85;;;;;;;4.49;75.28;94428.16;2054649;70;20229;-73
2022/11/11 07:34:53;;;;;;;26.45;12.63;;;;;;;4.57;75.45;94429.03;2054683;69;20156;-74
2022/11/11 07:37:38;;;;;;;23.63;11.13;;;;;;;4.65;75.13;94432.75;2054608;70;20169;-74
2022/11/11 07:40:22;;;;;;;25.27;11.38;;;;;;;4.77;74.91;94430.53;2051868;70;20249;-75
2022/11/11 07:43:06;;;;;;;22.63;11.70;;;;;;;4.85;75.05;94426.56;2051849;70;20165;-75
2022/11/11 07:45:50;;;;;;;22.58;11.65;;;;;;;4.90;75.14;94430.56;2054728;69;20178;-73
2022/11/11 07:48:34;;;;;;;19.70;9.82;;;;;;;5.01;75.01;94435.22;2054636;69;20144;-74
2022/11/11 07:51:18;;;;;;;22.27;9.43;;;;;;;4.97;75.21;94440.38;2054683;70;20161;-77
2022/11/11 07:54:03;;;;;;;19.15;8.98;;;;;;;5.05;75.16;94439.22;2054652;69;20157;-73
2022/11/11 07:56:47;;;;;;;20.95;11.15;;;;;;;5.02;75.17;94442.31;2054651;70;20165;-73
2022/11/11 07:59:31;;;;;;;31.45;16.88;;;;;;;5.01;75.42;94438.00;2054492;70;20244;-73
2022/11/11 08:02:15;;;;;;;34.50;16.95;;;;;;;5.14;75.28;94449.22;2054739;69;20193;-73
2022/11/11 08:04:59;;;;;;;34.60;16.67;;;;;;;5.04;74.98;94454.47;2054593;70;20160;-73
2022/11/11 08:07:43;;;;;;;36.58;16.98;;;;;;;5.27;74.54;94454.09;2054555;69;20153;-73
2022/11/11 08:10:27;;;;;;;27.05;14.50;;;;;;;5.54;75.12;94455.63;2054755;69;20157;-74
2022/11/11 08:16:15;;;;;;;20.23;9.38;;;;;;;6.17;74.51;94455.19;2054498;69;20172;-74
2022/11/11 08:19:00;;;;;;;22.83;8.90;;;;;;;6.58;73.31;94462.97;2054616;70;20216;-73
2022/11/11 08:21:45;;;;;;;15.38;9.13;;;;;;;6.86;72.04;94456.72;2054689;70;20587;-74
2022/11/11 08:24:29;;;;;;;17.40;10.10;;;;;;;6.99;71.48;94462.28;2054741;70;20168;-74
2022/11/11 08:27:13;;;;;;;20.17;9.40;;;;;;;7.10;72.50;94445.22;2054586;70;20625;-73
2022/11/11 08:29:57;;;;;;;14.85;8.35;;;;;;;7.43;71.23;94454.09;2052563;70;20511;-73
2022/11/11 08:32:41;;;;;;;24.83;13.80;;;;;;;7.27;69.74;94458.06;2054752;70;20161;-75
2022/11/11 08:35:26;;;;;;;43.95;23.00;;;;;;;7.35;70.65;94456.81;2055090;69;20165;-73
2022/11/11 08:38:10;;;;;;;19.42;10.68;;;;;;;7.66;70.15;94459.88;2055354;70;20264;-73
2022/11/11 08:40:59;;;;;;;13.93;8.27;;;;;;;8.04;69.39;94462.16;2055396;69;20161;-74
2022/11/11 08:43:43;;;;;;;12.10;7.68;;;;;;;8.43;67.42;94451.91;2054768;69;20577;-76
2022/11/11 08:46:26;;;;;;;11.35;7.53;;;;;;;8.53;67.11;94448.03;2054639;70;20156;-77
2022/11/11 08:49:12;;;;;;;17.45;8.32;;;;;;;8.83;66.23;94450.16;2054549;70;20181;-80
2022/11/11 08:51:56;;;;;;;16.25;7.97;;;;;;;8.82;66.57;94454.28;2054686;70;20216;-78
2022/11/11 08:54:40;;;;;;;17.77;6.88;;;;;;;9.24;65.66;94451.19;2054626;70;20621;-79
2022/11/11 08:57:26;;;;;;;12.65;6.88;;;;;;;9.36;64.40;94446.69;2054502;69;20230;-76
2022/11/11 09:00:12;;;;;;;23.08;6.45;;;;;;;9.51;64.71;94445.22;2054553;70;20164;-75
2022/11/11 09:03:02;;;;;;;10.82;5.57;;;;;;;9.56;63.41;94449.88;2054515;69;20538;-74
2022/11/11 09:05:46;;;;;;;7.45;4.88;;;;;;;9.60;62.52;94453.06;2054622;70;20180;-74
2022/11/11 09:08:31;;;;;;;6.38;4.40;;;;;;;9.59;61.22;94460.03;2054371;69;20194;-72
2022/11/11 09:11:15;;;;;;;7.65;4.70;;;;;;;9.72;61.62;94447.84;2054464;69;20618;-74
2022/11/11 09:13:59;;;;;;;10.85;5.57;;;;;;;10.14;61.69;94448.13;2054350;70;20237;-74
2022/11/11 09:16:44;;;;;;;7.65;4.55;;;;;;;10.22;61.49;94448.88;2054289;69;20169;-74
2022/11/11 09:19:28;;;;;;;10.90;5.50;;;;;;;10.14;61.83;94448.13;2054573;70;20530;-74
2022/11/11 09:22:19;;;;;;;7.78;4.25;;;;;;;10.03;61.01;94451.34;2056805;70;20525;-74
2022/11/11 09:25:03;;;;;;;10.82;4.90;;;;;;;10.09;62.20;94432.22;2054386;70;20266;-74
2022/11/11 09:27:59;;;;;;;8.05;4.85;;;;;;;10.21;61.17;94433.28;2056333;69;20148;-75
2022/11/11 09:30:43;;;;;;;15.55;5.90;;;;;;;10.53;60.86;94434.69;2055174;69;20157;-77
2022/11/11 09:33:29;;;;;;;11.25;5.60;;;;;;;10.91;60.19;94437.34;2055694;69;20185;-79
2022/11/11 09:36:13;;;;;;;10.07;5.93;;;;;;;11.15;59.15;94433.06;2054460;70;20265;-82
2022/11/11 09:38:57;;;;;;;7.97;5.57;;;;;;;11.06;59.12;94436.50;2054548;70;20164;-78
2022/11/11 09:42:02;;;;;;;9.43;6.50;;;;;;;11.25;59.36;94430.38;2054695;70;20232;-82
2022/11/11 09:45:08;;;;;;;11.52;6.80;;;;;;;11.05;57.50;94427.31;2054575;69;20149;-83
2022/11/11 09:48:25;;;;;;;15.63;6.90;;;;;;;11.44;57.68;94433.44;2054407;69;20239;-77
2022/11/11 09:51:19;;;;;;;9.25;5.65;;;;;;;11.40;58.76;94421.81;2054270;69;20301;-78
2022/11/11 09:54:12;;;;;;;10.77;4.90;;;;;;;11.80;57.63;94421.66;2054494;70;20583;-78
2022/11/11 09:57:01;;;;;;;7.80;4.70;;;;;;;11.07;59.84;94412.63;2054464;69;20228;-79
2022/11/11 09:59:49;;;;;;;8.25;5.35;;;;;;;11.80;59.10;94416.00;2054560;69;20153;-77
2022/11/11 10:03:14;;;;;;;9.48;5.97;;;;;;;12.12;57.02;94408.78;2054482;70;20602;-78
2022/11/11 10:06:02;;;;;;;7.47;4.50;;;;;;;12.12;54.44;94403.13;2057918;70;20153;-77
2022/11/11 10:09:02;;;;;;;10.85;5.30;;;;;;;12.54;54.46;94405.84;2054756;69;20694;-76
2022/11/11 10:12:12;;;;;;;7.50;3.90;;;;;;;11.67;56.12;94402.22;2054667;70;20310;-79
2022/11/11 10:15:00;;;;;;;7.70;3.90;;;;;;;12.67;52.67;94394.19;2054394;69;20177;-78
2022/11/11 10:18:08;;;;;;;5.90;3.00;;;;;;;13.82;51.04;94391.75;2054301;69;20228;-79
2022/11/11 10:20:54;;;;;;;3.65;2.20;;;;;;;13.91;48.10;94394.59;2054494;70;20164;-79
2022/11/11 10:23:41;;;;;;;2.05;1.70;;;;;;;13.72;46.67;94383.22;2054596;69;20169;-79
2022/11/11 10:26:38;;;;;;;5.32;3.03;;;;;;;14.89;46.21;94389.69;2054335;69;20149;-79
2022/11/11 10:29:26;;;;;;;2.95;1.80;;;;;;;15.32;44.74;94381.38;2054297;70;20153;-80
2022/11/11 10:32:20;;;;;;;4.72;2.00;;;;;;;15.34;44.83;94370.91;2051595;70;20510;-80
2022/11/11 10:35:20;;;;;;;3.60;2.20;;;;;;;15.88;42.41;94384.56;2054444;70;20205;-79
2022/11/11 10:38:25;;;;;;;3.10;1.38;;;;;;;15.46;42.17;94374.59;2054530;70;20213;-78
2022/11/11 10:41:16;;;;;;;3.05;1.30;;;;;;;16.52;42.45;94356.13;2054526;70;20517;-81
2022/11/11 10:44:01;;;;;;;2.17;1.20;;;;;;;17.69;41.76;94366.31;2054280;70;20169;-81
2022/11/11 10:46:55;;;;;;;2.40;1.20;;;;;;;18.72;41.30;94359.56;2054346;70;20256;-81
2022/11/11 10:49:49;;;;;;;1.92;0.82;;;;;;;18.97;35.49;94365.28;2054338;70;20153;-81
2022/11/11 10:52:49;;;;;;;3.08;0.98;;;;;;;20.49;36.75;94362.63;2054449;70;20145;-81
2022/11/11 10:55:52;;;;;;;1.88;1.00;;;;;;;18.68;37.78;94359.28;2054391;69;20589;-81
2022/11/11 10:58:45;;;;;;;1.92;1.10;;;;;;;19.94;37.04;94362.66;2054419;70;20216;-81
2022/11/11 11:01:37;;;;;;;1.52;0.98;;;;;;;20.23;36.11;94362.72;2051803;70;20277;-80
2022/11/11 11:04:44;;;;;;;1.42;0.98;;;;;;;22.16;34.32;94349.69;2054078;70;20165;-80
2022/11/11 11:07:59;;;;;;;2.08;0.90;;;;;;;22.54;31.32;94353.47;2052052;70;20518;-82
2022/11/11 11:10:50;;;;;;;2.45;0.80;;;;;;;21.99;32.50;94345.34;2054903;69;20262;-75
2022/11/11 11:13:49;;;;;;;2.15;0.80;;;;;;;23.79;29.75;94344.84;2054568;70;20153;-78
2022/11/11 11:16:46;;;;;;;1.52;0.90;;;;;;;22.83;30.67;94338.19;2054656;69;20153;-75
2022/11/11 11:19:31;;;;;;;3.13;1.80;;;;;;;23.22;30.56;94336.88;2054965;69;20185;-77
2022/11/11 11:22:16;;;;;;;2.65;1.90;;;;;;;22.02;30.84;94330.44;2054935;69;20278;-76
2022/11/11 11:25:12;;;;;;;3.58;1.50;;;;;;;22.65;31.82;94334.56;2054784;69;20209;-76
2022/11/11 11:28:09;;;;;;;1.00;0.90;;;;;;;22.47;29.80;94328.78;2054637;70;20606;-76
2022/11/11 11:31:00;;;;;;;2.88;1.75;;;;;;;21.44;30.55;94329.28;2054852;69;20288;-79
2022/11/11 11:33:52;;;;;;;28.17;20.27;;;;;;;21.57;32.18;94327.69;2054844;69;20148;-76
2022/11/11 11:36:36;;;;;;;2.03;1.60;;;;;;;19.80;37.24;94323.38;2054701;70;20233;-76
2022/11/11 11:39:38;;;;;;;2.17;1.80;;;;;;;18.90;38.49;94317.78;2054917;69;20157;-79
2022/11/11 11:42:36;;;;;;;2.97;2.05;;;;;;;18.29;40.34;94314.31;2055483;70;20176;-76
2022/11/11 11:45:25;;;;;;;4.43;2.00;;;;;;;17.47;41.80;94309.47;2054849;69;20148;-77
2022/11/11 11:48:32;;;;;;;3.65;1.90;;;;;;;16.79;43.06;94305.94;2054772;69;20172;-78
2022/11/11 11:51:25;;;;;;;2.72;2.00;;;;;;;17.29;41.44;94302.66;2054751;70;20217;-79
2022/11/11 11:54:47;;;;;;;3.30;2.03;;;;;;;16.84;42.22;94294.19;2054797;70;20267;-79
2022/11/11 11:57:55;;;;;;;4.20;1.95;;;;;;;16.31;42.05;94299.34;2054569;69;20633;-77
2022/11/11 12:00:56;;;;;;;3.83;2.35;;;;;;;16.15;44.47;94292.59;2054740;70;20173;-76
2022/11/11 12:04:19;;;;;;;7.30;3.58;;;;;;;16.14;44.90;94291.84;2054797;69;20201;-76
2022/11/11 12:07:22;;;;;;;3.88;2.90;;;;;;;15.64;47.19;94289.97;2054637;69;20214;-77
2022/11/11 12:10:11;;;;;;;7.63;4.80;;;;;;;15.48;48.41;94295.25;2054668;69;20188;-75
2022/11/11 12:13:00;;;;;;;4.53;2.95;;;;;;;14.68;50.96;94291.88;2054406;70;20217;-77
2022/11/11 12:15:59;;;;;;;4.80;2.88;;;;;;;15.46;49.32;94295.13;2054674;69;20153;-77
2022/11/11 12:18:43;;;;;;;3.53;2.63;;;;;;;15.56;48.88;94300.75;2054533;70;20176;-76
2022/11/11 12:21:58;;;;;;;3.03;2.55;;;;;;;15.56;49.10;94285.81;2054608;70;20706;-76
2022/11/11 12:25:19;;;;;;;3.60;2.53;;;;;;;15.20;49.62;94291.22;2049411;70;20694;-79
2022/11/11 12:28:03;;;;;;;4.45;2.35;;;;;;;14.73;50.19;94285.13;2054504;70;20209;-79
2022/11/11 12:30:53;;;;;;;4.80;2.15;;;;;;;14.18;52.58;94275.53;2054716;69;20241;-79
2022/11/11 12:33:43;;;;;;;15.77;8.52;;;;;;;14.43;51.70;94280.09;2054802;69;20309;-79
2022/11/11 12:36:36;;;;;;;14.85;8.70;;;;;;;14.29;51.99;94273.41;2054664;69;20235;-76
2022/11/11 12:39:29;;;;;;;13.00;8.13;;;;;;;14.30;52.59;94267.16;2054596;70;20180;-77
2022/11/11 12:42:27;;;;;;;10.30;5.47;;;;;;;14.43;51.88;94261.03;2054719;69;20161;-76
2022/11/11 12:45:20;;;;;;;7.28;4.80;;;;;;;14.24;52.30;94261.78;2054825;69;20252;-77
2022/11/11 12:48:37;;;;;;;8.25;4.38;;;;;;;13.82;53.40;94247.38;2054523;69;20649;-77
2022/11/11 12:51:36;;;;;;;5.60;3.33;;;;;;;13.78;53.14;94250.66;2051884;70;20149;-77
2022/11/11 12:54:52;;;;;;;20.65;12.88;;;;;;;13.69;53.66;94248.56;2054570;69;20153;-79
2022/11/11 12:58:23;;;;;;;13.63;6.60;;;;;;;13.58;54.35;94244.25;2054372;69;20161;-77
2022/11/11 13:01:32;;;;;;;8.40;4.28;;;;;;;13.13;55.60;94232.38;2054507;70;20510;-78
2022/11/11 13:04:28;;;;;;;10.02;4.07;;;;;;;13.50;55.07;94232.31;2054436;70;20157;-78
2022/11/11 13:07:34;;;;;;;5.82;3.58;;;;;;;13.48;54.82;94229.34;2054583;70;20315;-79
2022/11/11 13:11:00;;;;;;;5.18;3.05;;;;;;;13.44;54.81;94234.69;2054119;69;20283;-78
2022/11/11 13:13:53;;;;;;;4.05;3.10;;;;;;;13.35;55.62;94230.50;2046877;70;20157;-77
2022/11/11 13:16:37;;;;;;;7.07;3.83;;;;;;;13.35;55.16;94229.78;2044958;70;20177;-77
2022/11/11 13:19:36;;;;;;;7.28;3.85;;;;;;;13.22;55.48;94230.94;2053375;70;20243;-77
2022/11/11 13:22:27;;;;;;;9.07;4.13;;;;;;;13.28;54.83;94227.81;2053904;70;20356;-77
2022/11/11 13:25:17;;;;;;;23.75;9.75;;;;;;;12.97;55.46;94237.56;2053569;70;20252;-77
2022/11/11 13:28:01;;;;;;;20.42;11.25;;;;;;;13.17;54.85;94231.94;2054307;69;20290;-77
2022/11/11 13:31:07;;;;;;;21.13;11.20;;;;;;;13.29;54.45;94227.25;2053834;69;20165;-77
2022/11/11 13:33:57;;;;;;;20.40;10.20;;;;;;;12.76;55.49;94228.84;2052712;70;20207;-76
2022/11/11 13:36:51;;;;;;;23.27;13.30;;;;;;;13.15;54.74;94232.53;2051645;70;20241;-77
2022/11/11 13:40:01;;;;;;;25.85;13.07;;;;;;;13.08;55.88;94238.31;2051213;70;20232;-77
2022/11/11 13:42:49;;;;;;;26.40;12.25;;;;;;;13.00;56.34;94234.88;2050823;70;20173;-77
2022/11/11 13:45:38;;;;;;;32.70;16.45;;;;;;;13.00;55.82;94234.88;2051085;70;20157;-76
2022/11/11 13:48:42;;;;;;;30.60;16.50;;;;;;;12.22;58.64;94231.72;2050647;70;20146;-77
2022/11/11 13:51:38;;;;;;;21.63;11.25;;;;;;;12.53;57.79;94234.84;2051033;70;20238;-77
2022/11/11 13:54:35;;;;;;;5.50;3.17;;;;;;;12.41;57.34;94237.47;2050810;70;20244;-77
2022/11/11 13:57:21;;;;;;;8.65;4.45;;;;;;;12.81;56.59;94233.47;2050717;70;20235;-77
2022/11/11 14:00:24;;;;;;;9.55;6.10;;;;;;;12.87;56.95;94236.75;2050842;70;20256;-78
2022/11/11 14:03:21;;;;;;;18.08;7.28;;;;;;;12.83;56.73;94233.66;2047836;70;20158;-78
2022/11/11 14:06:36;;;;;;;19.00;9.57;;;;;;;12.92;56.69;94232.94;2050919;70;20238;-77
2022/11/11 14:09:57;;;;;;;13.35;7.60;;;;;;;12.94;56.94;94226.69;2050701;70;20347;-77
2022/11/11 14:12:55;;;;;;;8.65;5.05;;;;;;;12.74;56.77;94234.34;2050804;70;20184;-79
2022/11/11 14:15:42;;;;;;;6.25;4.07;;;;;;;12.82;56.60;94226.47;2050743;70;20153;-79
2022/11/11 14:18:35;;;;;;;10.85;5.70;;;;;;;12.49;57.18;94231.69;2050812;70;20531;-77
2022/11/11 14:22:04;;;;;;;8.20;6.00;;;;;;;12.38;58.15;94232.25;2050686;70;20231;-77
2022/11/11 14:24:48;;;;;;;12.80;6.50;;;;;;;12.45;57.92;94231.38;2050876;70;20270;-77
2022/11/11 14:27:33;;;;;;;12.60;7.10;;;;;;;12.34;58.56;94232.69;2050812;70;20668;-76
2022/11/11 14:30:47;;;;;;;18.88;7.97;;;;;;;12.29;58.38;94239.34;2051004;70;20181;-76
2022/11/11 14:34:00;;;;;;;11.73;7.32;;;;;;;11.87;60.52;94240.25;2049340;70;20212;-78
2022/11/11 14:36:50;;;;;;;10.43;6.70;;;;;;;12.01;59.60;94235.00;2051821;70;20181;-83
2022/11/11 14:39:39;;;;;;;13.48;9.20;;;;;;;12.15;58.96;94233.31;2051766;70;20188;-78
2022/11/11 14:42:33;;;;;;;18.63;10.60;;;;;;;12.10;59.35;94253.34;2051601;70;20153;-78